sensor_id;sensor_type;location;lat;lon;timestamp;temperature;humidity
64987;DHT22;67903;52.108;9.358;2023-09-19T00:02:41;15.50;99.90
64987;DHT22;67903;52.108;9.358;2023-09-19T00:05:27;15.40;99.90
64987;DHT22;67903;52.108;9.358;2023-09-19T00:08:13;15.40;99.90
64987;DHT22;67903;52.108;9.358;2023-09-19T00:10:59;15.50;99.90
64987;DHT22;67903;52.108;9.358;2023-09-19T00:13:51;15.50;99.90
64987;DHT22;67903;52.108;9.358;2023-09-19T00:16:36;15.60;99.90
64987;DHT22;67903;52.108;9.358;2023-09-19T00:19:22;15.60;99.90
64987;DHT22;67903;52.108;9.358;2023-09-19T00:22:09;15.60;99.90
64987;DHT22;67903;52.108;9.358;2023-09-19T00:24:55;15.60;99.90
64987;DHT22;67903;52.108;9.358;2023-09-19T00:27:40;15.60;99.90
64987;DHT22;67903;52.108;9.358;2023-09-19T00:30:28;15.60;99.90
64987;DHT22;67903;52.108;9.358;2023-09-19T00:33:13;15.60;99.90
64987;DHT22;67903;52.108;9.358;2023-09-19T00:36:02;15.60;99.90
64987;DHT22;67903;52.108;9.358;2023-09-19T00:38:50;15.60;99.90
64987;DHT22;67903;52.108;9.358;2023-09-19T00:41:36;15.60;99.90
64987;DHT22;67903;52.108;9.358;2023-09-19T00:44:22;15.60;99.90
64987;DHT22;67903;52.108;9.358;2023-09-19T00:47:09;15.60;99.90
64987;DHT22;67903;52.108;9.358;2023-09-19T00:49:55;15.60;99.90
64987;DHT22;67903;52.108;9.358;2023-09-19T00:52:42;15.70;99.90
64987;DHT22;67903;52.108;9.358;2023-09-19T00:55:29;15.70;99.90
64987;DHT22;67903;52.108;9.358;2023-09-19T00:58:17;15.80;99.90
64987;DHT22;67903;52.108;9.358;2023-09-19T01:01:04;15.90;99.90
64987;DHT22;67903;52.108;9.358;2023-09-19T01:03:53;15.90;99.90
64987;DHT22;67903;52.108;9.358;2023-09-19T01:06:39;16.00;99.90
64987;DHT22;67903;52.108;9.358;2023-09-19T01:09:25;16.00;99.90
64987;DHT22;67903;52.108;9.358;2023-09-19T01:12:15;16.00;99.90
64987;DHT22;67903;52.108;9.358;2023-09-19T01:15:44;16.00;99.90
64987;DHT22;67903;52.108;9.358;2023-09-19T01:21:48;16.00;99.70
64987;DHT22;67903;52.108;9.358;2023-09-19T01:30:26;16.20;88.10
64987;DHT22;67903;52.108;9.358;2023-09-19T01:33:12;16.20;87.00
64987;DHT22;67903;52.108;9.358;2023-09-19T01:36:00;16.10;87.20
64987;DHT22;67903;52.108;9.358;2023-09-19T01:38:46;16.10;87.50
64987;DHT22;67903;52.108;9.358;2023-09-19T01:47:37;16.10;85.70
64987;DHT22;67903;52.108;9.358;2023-09-19T01:50:40;16.10;86.30
64987;DHT22;67903;52.108;9.358;2023-09-19T01:53:33;16.10;85.60
64987;DHT22;67903;52.108;9.358;2023-09-19T01:56:32;16.00;85.90
64987;DHT22;67903;52.108;9.358;2023-09-19T01:59:28;16.10;85.40
64987;DHT22;67903;52.108;9.358;2023-09-19T02:02:17;16.00;85.10
64987;DHT22;67903;52.108;9.358;2023-09-19T02:05:04;16.10;85.00
64987;DHT22;67903;52.108;9.358;2023-09-19T02:07:49;16.00;82.60
64987;DHT22;67903;52.108;9.358;2023-09-19T02:10:35;16.10;82.00
64987;DHT22;67903;52.108;9.358;2023-09-19T02:13:22;16.00;81.80
64987;DHT22;67903;52.108;9.358;2023-09-19T02:16:11;16.00;81.40
64987;DHT22;67903;52.108;9.358;2023-09-19T02:18:57;16.00;81.10
64987;DHT22;67903;52.108;9.358;2023-09-19T02:21:45;16.00;80.90
64987;DHT22;67903;52.108;9.358;2023-09-19T02:24:31;16.00;80.70
64987;DHT22;67903;52.108;9.358;2023-09-19T02:27:16;16.10;81.00
64987;DHT22;67903;52.108;9.358;2023-09-19T02:30:04;16.00;81.50
64987;DHT22;67903;52.108;9.358;2023-09-19T02:32:51;16.10;81.40
64987;DHT22;67903;52.108;9.358;2023-09-19T02:35:37;16.10;81.50
64987;DHT22;67903;52.108;9.358;2023-09-19T02:38:23;16.10;80.70
64987;DHT22;67903;52.108;9.358;2023-09-19T02:41:10;16.10;80.50
64987;DHT22;67903;52.108;9.358;2023-09-19T02:43:56;16.10;80.20
64987;DHT22;67903;52.108;9.358;2023-09-19T02:46:42;16.10;80.30
64987;DHT22;67903;52.108;9.358;2023-09-19T02:49:28;16.10;79.40
64987;DHT22;67903;52.108;9.358;2023-09-19T02:52:13;16.00;80.60
64987;DHT22;67903;52.108;9.358;2023-09-19T02:54:59;16.00;80.30
64987;DHT22;67903;52.108;9.358;2023-09-19T03:00:32;15.80;81.40
64987;DHT22;67903;52.108;9.358;2023-09-19T03:03:20;15.80;80.30
64987;DHT22;67903;52.108;9.358;2023-09-19T03:06:06;15.80;79.80
64987;DHT22;67903;52.108;9.358;2023-09-19T03:08:53;15.80;79.30
64987;DHT22;67903;52.108;9.358;2023-09-19T03:11:40;15.70;79.60
64987;DHT22;67903;52.108;9.358;2023-09-19T03:14:27;15.60;79.80
64987;DHT22;67903;52.108;9.358;2023-09-19T03:17:16;15.60;79.70
64987;DHT22;67903;52.108;9.358;2023-09-19T03:20:03;15.60;78.80
64987;DHT22;67903;52.108;9.358;2023-09-19T03:22:50;15.60;78.70
64987;DHT22;67903;52.108;9.358;2023-09-19T03:25:35;15.60;78.80
64987;DHT22;67903;52.108;9.358;2023-09-19T03:28:24;15.50;79.10
64987;DHT22;67903;52.108;9.358;2023-09-19T03:31:12;15.60;79.00
64987;DHT22;67903;52.108;9.358;2023-09-19T03:33:58;15.50;79.20
64987;DHT22;67903;52.108;9.358;2023-09-19T03:36:43;15.50;78.80
64987;DHT22;67903;52.108;9.358;2023-09-19T03:39:29;15.40;79.50
64987;DHT22;67903;52.108;9.358;2023-09-19T03:42:14;15.40;79.30
64987;DHT22;67903;52.108;9.358;2023-09-19T03:45:00;15.40;79.10
64987;DHT22;67903;52.108;9.358;2023-09-19T03:47:49;15.20;80.10
64987;DHT22;67903;52.108;9.358;2023-09-19T03:50:38;15.20;79.80
64987;DHT22;67903;52.108;9.358;2023-09-19T03:53:24;15.30;78.70
64987;DHT22;67903;52.108;9.358;2023-09-19T03:56:09;15.30;78.90
64987;DHT22;67903;52.108;9.358;2023-09-19T03:58:56;15.40;78.50
64987;DHT22;67903;52.108;9.358;2023-09-19T04:01:41;15.40;78.20
64987;DHT22;67903;52.108;9.358;2023-09-19T04:04:28;15.40;78.00
64987;DHT22;67903;52.108;9.358;2023-09-19T04:07:14;15.30;78.50
64987;DHT22;67903;52.108;9.358;2023-09-19T04:10:00;15.30;78.60
64987;DHT22;67903;52.108;9.358;2023-09-19T04:12:53;15.30;78.20
64987;DHT22;67903;52.108;9.358;2023-09-19T04:15:40;15.20;78.70
64987;DHT22;67903;52.108;9.358;2023-09-19T04:18:26;15.30;77.00
64987;DHT22;67903;52.108;9.358;2023-09-19T04:21:12;15.40;76.40
64987;DHT22;67903;52.108;9.358;2023-09-19T04:23:57;15.40;76.90
64987;DHT22;67903;52.108;9.358;2023-09-19T04:26:42;15.40;77.10
64987;DHT22;67903;52.108;9.358;2023-09-19T04:29:28;15.30;77.00
64987;DHT22;67903;52.108;9.358;2023-09-19T04:32:15;15.20;77.00
64987;DHT22;67903;52.108;9.358;2023-09-19T04:35:02;15.20;76.50
64987;DHT22;67903;52.108;9.358;2023-09-19T04:37:51;15.20;76.50
64987;DHT22;67903;52.108;9.358;2023-09-19T04:40:36;15.10;76.60
64987;DHT22;67903;52.108;9.358;2023-09-19T04:43:26;15.10;76.40
64987;DHT22;67903;52.108;9.358;2023-09-19T04:46:11;15.00;76.40
64987;DHT22;67903;52.108;9.358;2023-09-19T04:48:59;15.00;76.40
64987;DHT22;67903;52.108;9.358;2023-09-19T04:51:45;15.00;76.50
64987;DHT22;67903;52.108;9.358;2023-09-19T04:54:33;15.00;76.40
64987;DHT22;67903;52.108;9.358;2023-09-19T04:57:18;15.00;75.80
64987;DHT22;67903;52.108;9.358;2023-09-19T05:00:04;15.00;75.70
64987;DHT22;67903;52.108;9.358;2023-09-19T05:02:57;15.00;75.10
64987;DHT22;67903;52.108;9.358;2023-09-19T05:05:43;15.00;75.90
64987;DHT22;67903;52.108;9.358;2023-09-19T05:08:29;14.90;75.40
64987;DHT22;67903;52.108;9.358;2023-09-19T05:11:14;14.70;75.80
64987;DHT22;67903;52.108;9.358;2023-09-19T05:14:00;14.90;74.60
64987;DHT22;67903;52.108;9.358;2023-09-19T05:16:49;15.00;73.70
64987;DHT22;67903;52.108;9.358;2023-09-19T05:19:34;15.00;74.20
64987;DHT22;67903;52.108;9.358;2023-09-19T05:22:20;15.00;74.40
64987;DHT22;67903;52.108;9.358;2023-09-19T05:25:07;15.00;74.30
64987;DHT22;67903;52.108;9.358;2023-09-19T05:27:53;15.00;73.80
64987;DHT22;67903;52.108;9.358;2023-09-19T05:30:39;14.90;74.40
64987;DHT22;67903;52.108;9.358;2023-09-19T05:33:25;14.80;74.70
64987;DHT22;67903;52.108;9.358;2023-09-19T05:36:12;14.80;75.20
64987;DHT22;67903;52.108;9.358;2023-09-19T05:38:57;14.80;74.90
64987;DHT22;67903;52.108;9.358;2023-09-19T05:41:43;14.80;75.00
64987;DHT22;67903;52.108;9.358;2023-09-19T05:44:29;14.70;75.20
64987;DHT22;67903;52.108;9.358;2023-09-19T05:47:14;14.70;75.30
64987;DHT22;67903;52.108;9.358;2023-09-19T05:50:00;14.70;75.20
64987;DHT22;67903;52.108;9.358;2023-09-19T05:52:54;14.80;74.50
64987;DHT22;67903;52.108;9.358;2023-09-19T05:55:42;14.80;75.00
64987;DHT22;67903;52.108;9.358;2023-09-19T05:58:27;14.90;74.20
64987;DHT22;67903;52.108;9.358;2023-09-19T06:01:13;14.80;74.70
64987;DHT22;67903;52.108;9.358;2023-09-19T06:03:58;14.70;74.50
64987;DHT22;67903;52.108;9.358;2023-09-19T06:06:46;14.60;75.00
64987;DHT22;67903;52.108;9.358;2023-09-19T06:09:34;14.70;74.70
64987;DHT22;67903;52.108;9.358;2023-09-19T06:12:19;14.70;74.70
64987;DHT22;67903;52.108;9.358;2023-09-19T06:15:05;14.60;74.80
64987;DHT22;67903;52.108;9.358;2023-09-19T06:17:55;14.70;74.80
64987;DHT22;67903;52.108;9.358;2023-09-19T06:20:41;14.60;74.70
64987;DHT22;67903;52.108;9.358;2023-09-19T06:23:29;14.60;74.30
64987;DHT22;67903;52.108;9.358;2023-09-19T06:26:15;14.80;73.70
64987;DHT22;67903;52.108;9.358;2023-09-19T06:29:00;14.70;73.70
64987;DHT22;67903;52.108;9.358;2023-09-19T06:31:46;14.70;73.40
64987;DHT22;67903;52.108;9.358;2023-09-19T06:34:32;14.70;73.10
64987;DHT22;67903;52.108;9.358;2023-09-19T06:37:18;14.70;73.00
64987;DHT22;67903;52.108;9.358;2023-09-19T06:40:12;14.70;72.70
64987;DHT22;67903;52.108;9.358;2023-09-19T06:43:01;14.70;73.30
64987;DHT22;67903;52.108;9.358;2023-09-19T06:45:47;14.70;73.20
64987;DHT22;67903;52.108;9.358;2023-09-19T06:48:33;14.80;72.20
64987;DHT22;67903;52.108;9.358;2023-09-19T06:51:19;14.70;72.40
64987;DHT22;67903;52.108;9.358;2023-09-19T06:54:05;14.70;72.70
64987;DHT22;67903;52.108;9.358;2023-09-19T06:56:50;14.80;71.40
64987;DHT22;67903;52.108;9.358;2023-09-19T06:59:36;14.90;71.20
64987;DHT22;67903;52.108;9.358;2023-09-19T07:02:22;14.80;70.80
64987;DHT22;67903;52.108;9.358;2023-09-19T07:05:08;15.00;70.20
64987;DHT22;67903;52.108;9.358;2023-09-19T07:07:53;15.00;70.50
64987;DHT22;67903;52.108;9.358;2023-09-19T07:10:44;15.00;69.90
64987;DHT22;67903;52.108;9.358;2023-09-19T07:13:34;15.20;69.60
64987;DHT22;67903;52.108;9.358;2023-09-19T07:16:20;15.30;69.00
64987;DHT22;67903;52.108;9.358;2023-09-19T07:19:14;15.30;68.60
64987;DHT22;67903;52.108;9.358;2023-09-19T07:22:02;15.40;68.90
64987;DHT22;67903;52.108;9.358;2023-09-19T07:24:48;15.40;67.70
64987;DHT22;67903;52.108;9.358;2023-09-19T07:27:34;15.50;67.70
64987;DHT22;67903;52.108;9.358;2023-09-19T07:30:19;15.50;67.70
64987;DHT22;67903;52.108;9.358;2023-09-19T07:33:05;15.60;67.20
64987;DHT22;67903;52.108;9.358;2023-09-19T07:35:51;15.60;67.30
64987;DHT22;67903;52.108;9.358;2023-09-19T07:38:37;15.50;66.90
64987;DHT22;67903;52.108;9.358;2023-09-19T07:41:24;15.50;67.20
64987;DHT22;67903;52.108;9.358;2023-09-19T07:44:09;15.50;67.70
64987;DHT22;67903;52.108;9.358;2023-09-19T07:46:57;15.50;66.90
64987;DHT22;67903;52.108;9.358;2023-09-19T07:49:43;15.50;67.40
64987;DHT22;67903;52.108;9.358;2023-09-19T07:52:32;15.50;67.90
64987;DHT22;67903;52.108;9.358;2023-09-19T07:55:20;15.50;67.70
64987;DHT22;67903;52.108;9.358;2023-09-19T07:58:08;15.50;68.00
64987;DHT22;67903;52.108;9.358;2023-09-19T08:00:54;15.60;67.80
64987;DHT22;67903;52.108;9.358;2023-09-19T08:03:40;15.60;67.40
64987;DHT22;67903;52.108;9.358;2023-09-19T08:06:27;15.60;67.00
64987;DHT22;67903;52.108;9.358;2023-09-19T08:09:15;15.60;67.70
64987;DHT22;67903;52.108;9.358;2023-09-19T08:12:08;15.60;67.30
64987;DHT22;67903;52.108;9.358;2023-09-19T08:14:55;15.70;67.90
64987;DHT22;67903;52.108;9.358;2023-09-19T08:17:41;15.80;67.40
64987;DHT22;67903;52.108;9.358;2023-09-19T08:20:26;15.80;66.70
64987;DHT22;67903;52.108;9.358;2023-09-19T08:23:12;15.80;66.80
64987;DHT22;67903;52.108;9.358;2023-09-19T08:25:58;16.00;66.30
64987;DHT22;67903;52.108;9.358;2023-09-19T08:28:46;16.00;66.10
64987;DHT22;67903;52.108;9.358;2023-09-19T08:31:31;16.10;66.10
64987;DHT22;67903;52.108;9.358;2023-09-19T08:34:17;16.00;66.10
64987;DHT22;67903;52.108;9.358;2023-09-19T08:37:03;16.10;65.80
64987;DHT22;67903;52.108;9.358;2023-09-19T08:39:49;16.10;65.30
64987;DHT22;67903;52.108;9.358;2023-09-19T08:42:50;16.20;65.00
64987;DHT22;67903;52.108;9.358;2023-09-19T08:45:36;16.20;64.60
64987;DHT22;67903;52.108;9.358;2023-09-19T08:48:28;16.40;65.40
64987;DHT22;67903;52.108;9.358;2023-09-19T08:51:30;16.40;65.00
64987;DHT22;67903;52.108;9.358;2023-09-19T08:54:25;16.40;64.40
64987;DHT22;67903;52.108;9.358;2023-09-19T08:57:16;16.40;64.90
64987;DHT22;67903;52.108;9.358;2023-09-19T09:00:07;16.50;64.80
64987;DHT22;67903;52.108;9.358;2023-09-19T09:02:57;16.50;64.30
64987;DHT22;67903;52.108;9.358;2023-09-19T09:05:44;16.50;64.20
64987;DHT22;67903;52.108;9.358;2023-09-19T09:08:32;16.60;64.00
64987;DHT22;67903;52.108;9.358;2023-09-19T09:11:18;16.70;64.30
64987;DHT22;67903;52.108;9.358;2023-09-19T09:14:06;16.80;64.30
64987;DHT22;67903;52.108;9.358;2023-09-19T09:16:52;16.70;64.00
64987;DHT22;67903;52.108;9.358;2023-09-19T09:19:42;16.70;64.40
64987;DHT22;67903;52.108;9.358;2023-09-19T09:22:28;16.80;63.50
64987;DHT22;67903;52.108;9.358;2023-09-19T09:25:14;16.70;63.70
64987;DHT22;67903;52.108;9.358;2023-09-19T09:28:01;16.80;64.10
64987;DHT22;67903;52.108;9.358;2023-09-19T09:30:47;16.90;64.30
64987;DHT22;67903;52.108;9.358;2023-09-19T09:33:32;17.00;64.30
64987;DHT22;67903;52.108;9.358;2023-09-19T09:36:37;17.00;64.10
64987;DHT22;67903;52.108;9.358;2023-09-19T09:39:31;17.00;64.20
64987;DHT22;67903;52.108;9.358;2023-09-19T09:45:21;16.90;64.70
64987;DHT22;67903;52.108;9.358;2023-09-19T09:48:24;17.00;64.30
64987;DHT22;67903;52.108;9.358;2023-09-19T09:51:29;17.00;64.70
64987;DHT22;67903;52.108;9.358;2023-09-19T09:54:17;17.00;64.40
64987;DHT22;67903;52.108;9.358;2023-09-19T09:57:08;17.00;64.40
64987;DHT22;67903;52.108;9.358;2023-09-19T10:00:02;17.20;63.90
64987;DHT22;67903;52.108;9.358;2023-09-19T10:02:56;17.20;63.70
64987;DHT22;67903;52.108;9.358;2023-09-19T10:05:44;17.20;63.60
64987;DHT22;67903;52.108;9.358;2023-09-19T10:08:30;17.20;62.80
64987;DHT22;67903;52.108;9.358;2023-09-19T10:11:17;17.20;63.10
64987;DHT22;67903;52.108;9.358;2023-09-19T10:14:05;17.30;63.20
64987;DHT22;67903;52.108;9.358;2023-09-19T10:16:53;17.20;62.40
64987;DHT22;67903;52.108;9.358;2023-09-19T10:19:57;17.30;62.80
64987;DHT22;67903;52.108;9.358;2023-09-19T10:22:53;17.50;62.20
64987;DHT22;67903;52.108;9.358;2023-09-19T10:25:44;17.50;61.40
64987;DHT22;67903;52.108;9.358;2023-09-19T10:28:33;17.50;61.90
64987;DHT22;67903;52.108;9.358;2023-09-19T10:31:22;17.50;61.60
64987;DHT22;67903;52.108;9.358;2023-09-19T10:34:11;17.60;61.60
64987;DHT22;67903;52.108;9.358;2023-09-19T10:36:56;17.70;61.50
64987;DHT22;67903;52.108;9.358;2023-09-19T10:39:46;17.80;60.80
64987;DHT22;67903;52.108;9.358;2023-09-19T10:42:33;17.70;60.10
64987;DHT22;67903;52.108;9.358;2023-09-19T10:45:21;17.80;60.10
64987;DHT22;67903;52.108;9.358;2023-09-19T10:48:07;17.80;60.40
64987;DHT22;67903;52.108;9.358;2023-09-19T10:51:17;17.80;60.80
64987;DHT22;67903;52.108;9.358;2023-09-19T10:54:13;18.00;60.90
64987;DHT22;67903;52.108;9.358;2023-09-19T10:57:01;18.00;59.70
64987;DHT22;67903;52.108;9.358;2023-09-19T11:00:09;17.90;59.60
64987;DHT22;67903;52.108;9.358;2023-09-19T11:06:11;18.00;59.40
64987;DHT22;67903;52.108;9.358;2023-09-19T11:09:03;18.10;59.00
64987;DHT22;67903;52.108;9.358;2023-09-19T11:12:47;18.10;59.40
64987;DHT22;67903;52.108;9.358;2023-09-19T11:27:13;18.30;58.60
64987;DHT22;67903;52.108;9.358;2023-09-19T11:30:26;18.20;59.10
64987;DHT22;67903;52.108;9.358;2023-09-19T11:33:29;18.20;58.90
64987;DHT22;67903;52.108;9.358;2023-09-19T11:36:35;18.30;58.70
64987;DHT22;67903;52.108;9.358;2023-09-19T11:39:25;18.40;58.50
64987;DHT22;67903;52.108;9.358;2023-09-19T11:42:40;18.40;58.20
64987;DHT22;67903;52.108;9.358;2023-09-19T11:48:32;18.80;58.00
64987;DHT22;67903;52.108;9.358;2023-09-19T11:51:20;18.90;57.50
64987;DHT22;67903;52.108;9.358;2023-09-19T11:54:12;18.80;57.50
64987;DHT22;67903;52.108;9.358;2023-09-19T11:57:07;18.80;57.30
64987;DHT22;67903;52.108;9.358;2023-09-19T11:59:55;18.80;57.60
64987;DHT22;67903;52.108;9.358;2023-09-19T12:02:42;18.60;56.20
64987;DHT22;67903;52.108;9.358;2023-09-19T12:05:32;18.60;57.40
64987;DHT22;67903;52.108;9.358;2023-09-19T12:08:18;18.80;56.30
64987;DHT22;67903;52.108;9.358;2023-09-19T12:11:06;18.70;55.70
64987;DHT22;67903;52.108;9.358;2023-09-19T12:13:55;18.80;55.50
64987;DHT22;67903;52.108;9.358;2023-09-19T12:16:54;19.20;55.50
64987;DHT22;67903;52.108;9.358;2023-09-19T12:19:51;19.30;54.80
64987;DHT22;67903;52.108;9.358;2023-09-19T12:22:44;19.50;54.70
64987;DHT22;67903;52.108;9.358;2023-09-19T12:25:44;19.20;55.20
64987;DHT22;67903;52.108;9.358;2023-09-19T12:28:41;19.10;54.40
64987;DHT22;67903;52.108;9.358;2023-09-19T12:31:29;19.20;54.80
64987;DHT22;67903;52.108;9.358;2023-09-19T12:34:19;19.40;54.30
64987;DHT22;67903;52.108;9.358;2023-09-19T12:37:08;19.40;53.60
64987;DHT22;67903;52.108;9.358;2023-09-19T12:40:05;19.20;54.10
64987;DHT22;67903;52.108;9.358;2023-09-19T12:43:00;19.10;54.40
64987;DHT22;67903;52.108;9.358;2023-09-19T12:45:48;19.10;54.80
64987;DHT22;67903;52.108;9.358;2023-09-19T12:48:34;19.10;54.30
64987;DHT22;67903;52.108;9.358;2023-09-19T12:51:21;19.00;54.20
64987;DHT22;67903;52.108;9.358;2023-09-19T12:54:09;19.00;55.00
64987;DHT22;67903;52.108;9.358;2023-09-19T12:57:00;19.10;54.50
64987;DHT22;67903;52.108;9.358;2023-09-19T12:59:46;19.10;54.60
64987;DHT22;67903;52.108;9.358;2023-09-19T13:02:31;19.20;54.90
64987;DHT22;67903;52.108;9.358;2023-09-19T13:05:18;19.40;54.80
64987;DHT22;67903;52.108;9.358;2023-09-19T13:08:18;19.70;54.60
64987;DHT22;67903;52.108;9.358;2023-09-19T13:11:11;19.50;54.30
64987;DHT22;67903;52.108;9.358;2023-09-19T13:14:17;19.70;53.90
64987;DHT22;67903;52.108;9.358;2023-09-19T13:17:07;19.60;54.10
64987;DHT22;67903;52.108;9.358;2023-09-19T13:20:04;19.70;54.10
64987;DHT22;67903;52.108;9.358;2023-09-19T13:22:52;19.70;54.20
64987;DHT22;67903;52.108;9.358;2023-09-19T13:25:40;19.80;54.20
64987;DHT22;67903;52.108;9.358;2023-09-19T13:28:25;19.70;54.10
64987;DHT22;67903;52.108;9.358;2023-09-19T13:31:13;19.70;54.40
64987;DHT22;67903;52.108;9.358;2023-09-19T13:33:59;19.70;54.30
64987;DHT22;67903;52.108;9.358;2023-09-19T13:36:45;19.90;54.00
64987;DHT22;67903;52.108;9.358;2023-09-19T13:39:34;19.90;53.70
64987;DHT22;67903;52.108;9.358;2023-09-19T13:42:19;20.00;53.30
64987;DHT22;67903;52.108;9.358;2023-09-19T13:45:07;20.10;53.30
64987;DHT22;67903;52.108;9.358;2023-09-19T13:47:53;20.00;53.20
64987;DHT22;67903;52.108;9.358;2023-09-19T13:50:40;19.90;53.60
64987;DHT22;67903;52.108;9.358;2023-09-19T13:53:27;20.00;53.50
64987;DHT22;67903;52.108;9.358;2023-09-19T13:56:13;20.00;53.00
64987;DHT22;67903;52.108;9.358;2023-09-19T13:58:58;20.00;53.00
64987;DHT22;67903;52.108;9.358;2023-09-19T14:01:44;20.30;52.20
64987;DHT22;67903;52.108;9.358;2023-09-19T14:04:29;20.10;52.60
64987;DHT22;67903;52.108;9.358;2023-09-19T14:07:19;20.10;53.00
64987;DHT22;67903;52.108;9.358;2023-09-19T14:10:05;20.10;52.20
64987;DHT22;67903;52.108;9.358;2023-09-19T14:12:53;20.00;52.60
64987;DHT22;67903;52.108;9.358;2023-09-19T14:15:39;20.10;53.20
64987;DHT22;67903;52.108;9.358;2023-09-19T14:18:24;20.50;52.50
64987;DHT22;67903;52.108;9.358;2023-09-19T14:21:10;20.30;52.50
64987;DHT22;67903;52.108;9.358;2023-09-19T14:23:56;20.10;52.60
64987;DHT22;67903;52.108;9.358;2023-09-19T14:26:42;20.00;52.50
64987;DHT22;67903;52.108;9.358;2023-09-19T14:29:27;20.10;52.20
64987;DHT22;67903;52.108;9.358;2023-09-19T14:32:14;20.10;52.10
64987;DHT22;67903;52.108;9.358;2023-09-19T14:35:00;20.10;52.90
64987;DHT22;67903;52.108;9.358;2023-09-19T14:37:45;20.10;53.20
64987;DHT22;67903;52.108;9.358;2023-09-19T14:40:31;20.30;52.70
64987;DHT22;67903;52.108;9.358;2023-09-19T14:43:16;20.50;52.50
64987;DHT22;67903;52.108;9.358;2023-09-19T14:46:08;20.70;52.50
64987;DHT22;67903;52.108;9.358;2023-09-19T14:48:56;20.50;52.30
64987;DHT22;67903;52.108;9.358;2023-09-19T14:51:45;20.60;52.10
64987;DHT22;67903;52.108;9.358;2023-09-19T14:54:32;20.50;52.40
64987;DHT22;67903;52.108;9.358;2023-09-19T14:57:20;20.50;52.70
64987;DHT22;67903;52.108;9.358;2023-09-19T15:00:06;20.60;52.50
64987;DHT22;67903;52.108;9.358;2023-09-19T15:02:57;20.70;52.40
64987;DHT22;67903;52.108;9.358;2023-09-19T15:05:43;20.60;52.20
64987;DHT22;67903;52.108;9.358;2023-09-19T15:08:28;20.50;52.50
64987;DHT22;67903;52.108;9.358;2023-09-19T15:11:15;20.30;53.00
64987;DHT22;67903;52.108;9.358;2023-09-19T15:14:05;20.30;53.20
64987;DHT22;67903;52.108;9.358;2023-09-19T15:16:51;20.00;53.50
64987;DHT22;67903;52.108;9.358;2023-09-19T15:19:36;20.00;54.50
64987;DHT22;67903;52.108;9.358;2023-09-19T15:22:23;19.90;54.50
64987;DHT22;67903;52.108;9.358;2023-09-19T15:25:08;20.10;54.20
64987;DHT22;67903;52.108;9.358;2023-09-19T15:27:54;20.00;54.10
64987;DHT22;67903;52.108;9.358;2023-09-19T15:30:39;20.00;54.80
64987;DHT22;67903;52.108;9.358;2023-09-19T15:33:25;19.90;54.50
64987;DHT22;67903;52.108;9.358;2023-09-19T15:36:14;19.80;55.40
64987;DHT22;67903;52.108;9.358;2023-09-19T15:39:01;19.80;55.10
64987;DHT22;67903;52.108;9.358;2023-09-19T15:41:47;19.80;55.20
64987;DHT22;67903;52.108;9.358;2023-09-19T15:44:34;19.70;55.50
64987;DHT22;67903;52.108;9.358;2023-09-19T15:47:19;19.60;55.20
64987;DHT22;67903;52.108;9.358;2023-09-19T15:50:06;19.50;55.50
64987;DHT22;67903;52.108;9.358;2023-09-19T15:52:54;19.50;55.40
64987;DHT22;67903;52.108;9.358;2023-09-19T15:55:40;19.50;55.20
64987;DHT22;67903;52.108;9.358;2023-09-19T15:58:26;19.50;55.20
64987;DHT22;67903;52.108;9.358;2023-09-19T16:01:11;19.50;55.30
64987;DHT22;67903;52.108;9.358;2023-09-19T16:03:57;19.50;55.40
64987;DHT22;67903;52.108;9.358;2023-09-19T16:06:43;19.50;55.40
64987;DHT22;67903;52.108;9.358;2023-09-19T16:09:29;19.50;55.20
64987;DHT22;67903;52.108;9.358;2023-09-19T16:12:14;19.50;55.30
64987;DHT22;67903;52.108;9.358;2023-09-19T16:15:00;19.40;55.30
64987;DHT22;67903;52.108;9.358;2023-09-19T16:17:46;19.40;55.20
64987;DHT22;67903;52.108;9.358;2023-09-19T16:20:31;19.30;55.30
64987;DHT22;67903;52.108;9.358;2023-09-19T16:23:18;19.30;55.90
64987;DHT22;67903;52.108;9.358;2023-09-19T16:26:07;19.30;56.30
64987;DHT22;67903;52.108;9.358;2023-09-19T16:28:55;19.20;56.20
64987;DHT22;67903;52.108;9.358;2023-09-19T16:31:46;19.20;55.90
64987;DHT22;67903;52.108;9.358;2023-09-19T16:34:31;19.20;56.10
64987;DHT22;67903;52.108;9.358;2023-09-19T16:37:17;19.10;56.00
64987;DHT22;67903;52.108;9.358;2023-09-19T16:40:04;19.10;56.40
64987;DHT22;67903;52.108;9.358;2023-09-19T16:42:50;19.20;56.60
64987;DHT22;67903;52.108;9.358;2023-09-19T16:45:36;19.20;56.50
64987;DHT22;67903;52.108;9.358;2023-09-19T16:48:25;19.20;55.80
64987;DHT22;67903;52.108;9.358;2023-09-19T16:51:12;19.10;56.00
64987;DHT22;67903;52.108;9.358;2023-09-19T16:53:58;19.10;56.40
64987;DHT22;67903;52.108;9.358;2023-09-19T16:56:44;19.10;56.70
64987;DHT22;67903;52.108;9.358;2023-09-19T16:59:29;19.00;56.30
64987;DHT22;67903;52.108;9.358;2023-09-19T17:02:15;18.90;56.60
64987;DHT22;67903;52.108;9.358;2023-09-19T17:05:01;18.70;57.60
64987;DHT22;67903;52.108;9.358;2023-09-19T17:07:46;18.60;57.00
64987;DHT22;67903;52.108;9.358;2023-09-19T17:10:34;18.50;57.10
64987;DHT22;67903;52.108;9.358;2023-09-19T17:13:19;18.50;57.30
64987;DHT22;67903;52.108;9.358;2023-09-19T17:16:13;18.50;57.40
64987;DHT22;67903;52.108;9.358;2023-09-19T17:19:03;18.50;57.50
64987;DHT22;67903;52.108;9.358;2023-09-19T17:21:53;18.40;57.80
64987;DHT22;67903;52.108;9.358;2023-09-19T17:24:39;18.30;57.40
64987;DHT22;67903;52.108;9.358;2023-09-19T17:27:24;18.20;57.90
64987;DHT22;67903;52.108;9.358;2023-09-19T17:30:12;18.20;58.10
64987;DHT22;67903;52.108;9.358;2023-09-19T17:33:00;18.10;58.70
64987;DHT22;67903;52.108;9.358;2023-09-19T17:35:46;18.00;58.50
64987;DHT22;67903;52.108;9.358;2023-09-19T17:38:32;18.00;58.70
64987;DHT22;67903;52.108;9.358;2023-09-19T17:41:17;18.00;58.20
64987;DHT22;67903;52.108;9.358;2023-09-19T17:44:03;18.00;58.90
64987;DHT22;67903;52.108;9.358;2023-09-19T17:46:49;18.00;58.30
64987;DHT22;67903;52.108;9.358;2023-09-19T17:49:35;18.00;58.90
64987;DHT22;67903;52.108;9.358;2023-09-19T17:52:21;17.80;59.50
64987;DHT22;67903;52.108;9.358;2023-09-19T17:55:07;17.80;59.80
64987;DHT22;67903;52.108;9.358;2023-09-19T17:57:53;17.70;59.80
64987;DHT22;67903;52.108;9.358;2023-09-19T18:00:42;17.60;60.10
64987;DHT22;67903;52.108;9.358;2023-09-19T18:03:30;17.70;59.80
64987;DHT22;67903;52.108;9.358;2023-09-19T18:06:17;17.70;59.80
64987;DHT22;67903;52.108;9.358;2023-09-19T18:09:04;17.80;59.20
64987;DHT22;67903;52.108;9.358;2023-09-19T18:11:52;17.80;59.40
64987;DHT22;67903;52.108;9.358;2023-09-19T18:14:38;17.80;59.70
64987;DHT22;67903;52.108;9.358;2023-09-19T18:17:24;17.70;60.00
64987;DHT22;67903;52.108;9.358;2023-09-19T18:20:10;17.70;59.80
64987;DHT22;67903;52.108;9.358;2023-09-19T18:22:56;17.80;59.60